createdAt,value
2023-04-03T00:00:50.423Z,4.59
2023-04-03T00:03:18.293Z,4.47
2023-04-03T00:05:46.094Z,4.47
2023-04-03T00:08:13.741Z,4.14
2023-04-03T00:10:42.624Z,4.34
2023-04-03T00:13:11.370Z,4.20
2023-04-03T00:15:39.609Z,3.86
2023-04-03T00:18:07.920Z,3.76
2023-04-03T00:20:36.045Z,3.39
2023-04-03T00:23:04.349Z,3.26
2023-04-03T00:25:31.918Z,3.54
2023-04-03T00:28:01.164Z,3.44
2023-04-03T00:30:28.673Z,3.79
2023-04-03T00:32:56.493Z,3.74
2023-04-03T00:35:25.378Z,3.49
2023-04-03T00:37:54.013Z,3.62
2023-04-03T00:40:23.683Z,3.77
2023-04-03T00:42:53.929Z,3.59
2023-04-03T00:45:31.682Z,3.72
2023-04-03T00:48:01.405Z,3.64
2023-04-03T00:50:31.627Z,3.73
2023-04-03T00:52:59.815Z,3.57
2023-04-03T00:55:27.406Z,3.04
2023-04-03T00:57:56.882Z,3.51
2023-04-03T01:00:27.036Z,3.50
2023-04-03T01:02:55.643Z,3.17
2023-04-03T01:05:24.009Z,2.97
2023-04-03T01:07:53.113Z,2.85
2023-04-03T01:10:21.807Z,2.80
2023-04-03T01:12:51.148Z,2.97
2023-04-03T01:15:21.087Z,2.79
2023-04-03T01:17:51.825Z,3.20
2023-04-03T01:20:42.404Z,2.81
2023-04-03T01:23:24.451Z,2.73
2023-04-03T01:25:53.640Z,2.64
2023-04-03T01:28:24.092Z,2.94
2023-04-03T01:30:59.626Z,2.91
2023-04-03T01:33:28.470Z,2.72
2023-04-03T01:35:56.228Z,2.86
2023-04-03T01:38:23.828Z,2.51
2023-04-03T01:40:51.566Z,2.60
2023-04-03T01:43:19.091Z,2.64
2023-04-03T01:45:47.402Z,2.43
2023-04-03T01:48:15.224Z,2.71
2023-04-03T01:50:44.043Z,2.62
2023-04-03T01:53:11.527Z,2.71
2023-04-03T01:55:39.015Z,3.07
2023-04-03T01:58:06.473Z,2.92
2023-04-03T02:00:34.208Z,2.59
2023-04-03T02:03:02.137Z,2.62
2023-04-03T02:05:29.639Z,2.49
2023-04-03T02:07:58.469Z,2.50
2023-04-03T02:10:25.964Z,2.47
2023-04-03T02:12:53.468Z,2.62
2023-04-03T02:15:20.995Z,2.79
2023-04-03T02:17:48.601Z,3.03
2023-04-03T02:20:16.178Z,2.93
2023-04-03T02:22:43.916Z,2.76
2023-04-03T02:25:13.470Z,2.95
2023-04-03T02:27:40.966Z,2.96
2023-04-03T02:30:11.553Z,3.13
2023-04-03T02:32:39.162Z,2.92
2023-04-03T02:35:07.441Z,2.76
2023-04-03T02:37:34.932Z,2.91
2023-04-03T02:40:02.524Z,2.93
2023-04-03T02:42:31.695Z,2.96
2023-04-03T02:45:01.282Z,2.92
2023-04-03T02:47:29.091Z,2.92
2023-04-03T02:49:56.630Z,2.89
2023-04-03T02:52:24.230Z,3.08
2023-04-03T02:54:51.705Z,2.74
2023-04-03T02:57:20.621Z,2.70
2023-04-03T02:59:49.467Z,2.59
2023-04-03T03:02:16.931Z,2.53
2023-04-03T03:04:44.550Z,2.64
2023-04-03T03:07:12.096Z,2.56
2023-04-03T03:09:39.560Z,2.44
2023-04-03T03:12:07.280Z,2.43
2023-04-03T03:14:34.791Z,2.49
2023-04-03T03:17:03.616Z,2.18
2023-04-03T03:19:31.079Z,2.16
2023-04-03T03:21:58.850Z,2.27
2023-04-03T03:24:26.318Z,2.15
2023-04-03T03:26:53.785Z,2.13
2023-04-03T03:29:21.510Z,2.16
2023-04-03T03:31:49.015Z,2.25
2023-04-03T03:34:17.907Z,2.26
2023-04-03T03:36:45.775Z,2.22
2023-04-03T03:39:13.435Z,2.31
2023-04-03T03:41:40.908Z,2.22
2023-04-03T03:44:08.397Z,2.54
2023-04-03T03:46:36.109Z,2.33
2023-04-03T03:49:03.630Z,2.51
2023-04-03T03:51:32.466Z,2.53
2023-04-03T03:53:59.956Z,2.57
2023-04-03T03:56:27.473Z,2.24
2023-04-03T03:58:57.067Z,2.10
2023-04-03T04:01:24.847Z,2.15
2023-04-03T04:03:52.432Z,2.26
2023-04-03T04:06:19.985Z,2.19
2023-04-03T04:08:48.910Z,2.23
2023-04-03T04:11:16.605Z,2.49
2023-04-03T04:13:44.065Z,2.25
2023-04-03T04:16:11.652Z,2.30
2023-04-03T04:18:39.209Z,2.31
2023-04-03T04:21:06.788Z,2.32
2023-04-03T04:23:34.278Z,2.10
2023-04-03T04:26:03.082Z,2.09
2023-04-03T04:28:30.702Z,2.30
2023-04-03T04:30:58.195Z,2.03
2023-04-03T04:33:26.507Z,1.92
2023-04-03T04:35:54.149Z,2.00
2023-04-03T04:38:21.696Z,1.90
2023-04-03T04:40:49.726Z,1.89
2023-04-03T04:43:19.047Z,2.25
2023-04-03T04:45:46.536Z,2.41
2023-04-03T04:48:14.090Z,1.91
2023-04-03T04:50:41.581Z,2.24
2023-04-03T04:53:09.498Z,2.13
2023-04-03T04:55:37.217Z,1.97
2023-04-03T04:58:04.849Z,2.19
2023-04-03T05:00:33.680Z,1.95
2023-04-03T05:03:01.163Z,2.09
2023-04-03T05:05:28.638Z,1.97
2023-04-03T05:07:56.163Z,2.28
2023-04-03T05:10:23.789Z,2.19
2023-04-03T05:12:51.301Z,2.25
2023-04-03T05:15:18.792Z,2.63
2023-04-03T05:17:47.634Z,2.48
2023-04-03T05:20:15.456Z,2.53
2023-04-03T05:22:42.910Z,2.32
2023-04-03T05:25:11.015Z,2.12
2023-04-03T05:27:38.494Z,2.23
2023-04-03T05:30:07.041Z,2.26
2023-04-03T05:32:34.733Z,2.14
2023-04-03T05:35:03.643Z,2.10
2023-04-03T05:37:31.106Z,2.05
2023-04-03T05:39:58.728Z,2.37
2023-04-03T05:42:26.400Z,2.41
2023-04-03T05:44:53.900Z,2.42
2023-04-03T05:47:21.470Z,2.51
2023-04-03T05:49:49.418Z,2.53
2023-04-03T05:52:23.330Z,2.83
2023-04-03T05:54:51.017Z,2.75
2023-04-03T05:57:19.010Z,2.90
2023-04-03T05:59:47.396Z,2.98
2023-04-03T06:02:16.550Z,3.04
2023-04-03T06:04:44.294Z,2.86
2023-04-03T06:07:14.982Z,3.00
2023-04-03T06:09:44.443Z,2.85
2023-04-03T06:12:12.250Z,3.18
2023-04-03T06:14:39.762Z,3.40
2023-04-03T06:17:07.434Z,3.65
2023-04-03T06:19:35.440Z,3.85
2023-04-03T06:22:03.862Z,3.19
2023-04-03T06:24:31.917Z,3.50
2023-04-03T06:27:01.150Z,3.81
2023-04-03T06:29:28.654Z,4.03
2023-04-03T06:31:56.436Z,3.98
2023-04-03T06:34:24.064Z,3.95
2023-04-03T06:36:52.144Z,3.87
2023-04-03T06:39:23.015Z,3.99
2023-04-03T06:41:51.030Z,3.99
2023-04-03T06:44:19.926Z,4.49
2023-04-03T06:46:47.767Z,3.62
2023-04-03T06:49:16.029Z,3.69
2023-04-03T06:51:43.543Z,3.45
2023-04-03T06:54:11.175Z,4.02
2023-04-03T06:56:38.733Z,3.60
2023-04-03T06:59:06.217Z,3.68
2023-04-03T07:01:35.087Z,3.55
2023-04-03T07:04:03.169Z,3.64
2023-04-03T07:06:31.914Z,3.95
2023-04-03T07:08:59.372Z,3.88
2023-04-03T07:11:27.211Z,4.00
2023-04-03T07:13:54.842Z,4.07
2023-04-03T07:16:22.461Z,4.51
2023-04-03T07:18:51.875Z,3.95
2023-04-03T07:21:19.333Z,4.01
2023-04-03T07:23:46.841Z,4.22
2023-04-03T07:26:14.602Z,4.31
2023-04-03T07:28:42.439Z,4.68
2023-04-03T07:31:14.347Z,4.73
2023-04-03T07:33:43.580Z,4.63
2023-04-03T07:36:16.607Z,4.50
2023-04-03T07:38:44.157Z,4.62
2023-04-03T07:41:15.929Z,4.60
2023-04-03T07:43:43.524Z,4.70
2023-04-03T07:46:11.661Z,5.03
2023-04-03T07:48:39.253Z,5.13
2023-04-03T07:51:07.600Z,4.97
2023-04-03T07:53:36.735Z,5.22
2023-04-03T07:56:04.542Z,5.26
2023-04-03T07:58:32.286Z,4.93
2023-04-03T08:00:59.783Z,5.21
2023-04-03T08:03:27.544Z,5.44
2023-04-03T08:05:55.367Z,4.47
2023-04-03T08:08:24.657Z,4.26
2023-04-03T08:10:54.647Z,4.90
2023-04-03T08:13:23.144Z,5.21
2023-04-03T08:15:50.686Z,4.77
2023-04-03T08:18:19.344Z,5.14
2023-04-03T08:20:47.145Z,5.59
2023-04-03T08:23:14.912Z,6.51
2023-04-03T08:25:43.637Z,7.09
2023-04-03T08:28:13.277Z,7.04
2023-04-03T08:30:41.871Z,6.79
2023-04-03T08:33:09.494Z,6.23
2023-04-03T08:35:41.696Z,6.45
2023-04-03T08:38:10.032Z,5.86
2023-04-03T08:40:37.538Z,5.95
2023-04-03T08:43:29.729Z,5.78
2023-04-03T08:46:00.739Z,5.02
2023-04-03T08:48:33.005Z,5.48
2023-04-03T08:51:05.457Z,5.69
2023-04-03T08:53:37.132Z,5.93
2023-04-03T08:56:10.181Z,5.32
2023-04-03T08:58:46.625Z,5.10
2023-04-03T09:01:21.653Z,4.84
2023-04-03T09:03:49.221Z,5.43
2023-04-03T09:06:21.672Z,5.95
2023-04-03T09:08:55.326Z,5.75
2023-04-03T09:11:27.646Z,5.07
2023-04-03T09:14:02.076Z,4.56
2023-04-03T09:16:40.992Z,4.46
2023-04-03T09:19:20.647Z,4.89
2023-04-03T09:21:48.198Z,5.30
2023-04-03T09:24:18.258Z,6.43
2023-04-03T09:26:51.419Z,8.31
2023-04-03T09:29:22.982Z,9.83
2023-04-03T09:31:52.354Z,7.82
2023-04-03T09:34:24.362Z,6.61
2023-04-03T09:36:53.951Z,5.30
2023-04-03T09:39:23.325Z,5.40
2023-04-03T09:42:00.423Z,5.00
2023-04-03T09:44:31.863Z,4.75
2023-04-03T09:47:00.469Z,5.12
2023-04-03T09:49:28.238Z,6.88
2023-04-03T09:51:55.717Z,7.03
2023-04-03T09:54:36.930Z,6.09
2023-04-03T09:57:09.925Z,5.44
2023-04-03T09:59:43.215Z,6.65
2023-04-03T10:02:27.027Z,7.77
2023-04-03T10:05:08.395Z,8.46
2023-04-03T10:07:38.609Z,8.43
2023-04-03T10:10:20.961Z,7.17
2023-04-03T10:12:48.841Z,6.43
2023-04-03T10:15:21.052Z,5.59
2023-04-03T10:18:00.372Z,5.51
2023-04-03T10:20:36.333Z,6.83
2023-04-03T10:23:17.956Z,8.03
2023-04-03T10:25:57.823Z,8.00
2023-04-03T10:28:32.948Z,8.64
2023-04-03T10:31:12.569Z,8.79
2023-04-03T10:33:53.252Z,8.54
2023-04-03T10:36:31.012Z,7.65
2023-04-03T10:39:10.853Z,8.17
2023-04-03T10:41:49.228Z,9.19
2023-04-03T10:44:29.723Z,10.36
2023-04-03T10:47:07.688Z,9.80
2023-04-03T10:52:24.294Z,9.65
2023-04-03T10:55:03.056Z,10.22
2023-04-03T10:57:32.174Z,9.82
2023-04-03T11:00:03.596Z,9.08
2023-04-03T11:02:35.013Z,9.08
2023-04-03T11:05:10.208Z,8.43
2023-04-03T11:07:42.471Z,8.88
2023-04-03T11:10:17.914Z,8.30
2023-04-03T11:12:48.935Z,7.76
2023-04-03T11:15:18.849Z,7.45
2023-04-03T11:17:53.535Z,7.88
2023-04-03T11:20:28.669Z,8.71
2023-04-03T11:23:02.250Z,9.42
2023-04-03T11:25:31.712Z,9.55
2023-04-03T11:28:02.653Z,9.53
2023-04-03T11:30:35.631Z,7.93
2023-04-03T11:33:19.246Z,7.51
2023-04-03T11:35:49.329Z,7.13
2023-04-03T11:38:23.851Z,8.49
2023-04-03T11:40:52.160Z,8.35
2023-04-03T11:43:26.712Z,7.56
2023-04-03T11:46:01.715Z,7.48
2023-04-03T11:48:49.861Z,8.29
2023-04-03T11:51:40.598Z,8.47
2023-04-03T11:54:47.248Z,8.27
2023-04-03T11:57:39.993Z,7.41
2023-04-03T12:00:41.342Z,8.11
2023-04-03T12:03:53.840Z,8.24
2023-04-03T12:06:55.759Z,9.01
2023-04-03T12:09:31.379Z,9.80
2023-04-03T12:12:01.418Z,10.20
2023-04-03T12:14:30.758Z,9.40
2023-04-03T12:17:00.803Z,9.07
2023-04-03T12:19:42.549Z,9.07
2023-04-03T12:22:16.140Z,9.51
2023-04-03T12:24:46.777Z,9.96
2023-04-03T12:27:36.460Z,10.03
2023-04-03T12:30:12.798Z,10.54
2023-04-03T12:32:56.273Z,9.96
2023-04-03T12:35:34.979Z,9.74
2023-04-03T12:38:34.449Z,8.24
2023-04-03T12:41:19.899Z,7.52
2023-04-03T12:44:01.407Z,8.70
2023-04-03T12:46:38.395Z,7.91
2023-04-03T12:49:20.072Z,7.82
2023-04-03T12:51:48.722Z,7.79
2023-04-03T12:54:19.725Z,7.73
2023-04-03T12:56:48.569Z,9.79
2023-04-03T12:59:18.346Z,10.61
2023-04-03T13:01:46.425Z,11.01
2023-04-03T13:04:14.354Z,11.50
2023-04-03T13:06:43.466Z,10.83
2023-04-03T13:09:22.643Z,8.32
2023-04-03T13:11:56.702Z,7.39
2023-04-03T13:14:27.106Z,8.02
2023-04-03T13:16:55.898Z,8.84
2023-04-03T13:19:27.557Z,9.78
2023-04-03T13:22:02.025Z,10.65
2023-04-03T13:24:31.216Z,10.58
2023-04-03T13:27:00.316Z,11.02
2023-04-03T13:29:31.952Z,9.46
2023-04-03T13:32:02.249Z,9.83
2023-04-03T13:34:32.544Z,10.10
2023-04-03T13:37:04.235Z,10.57
2023-04-03T13:39:33.675Z,10.70
2023-04-03T13:42:16.484Z,9.68
2023-04-03T13:44:44.306Z,9.70
2023-04-03T13:47:21.138Z,9.11
2023-04-03T13:50:02.018Z,7.68
2023-04-03T13:52:33.498Z,6.92
2023-04-03T13:55:05.848Z,7.55
2023-04-03T13:57:36.949Z,7.91
2023-04-03T14:00:36.466Z,9.37
2023-04-03T14:03:04.206Z,10.03
2023-04-03T14:05:31.828Z,9.95
2023-04-03T14:07:59.897Z,9.09
2023-04-03T14:10:27.389Z,8.14
2023-04-03T14:12:56.684Z,7.76
2023-04-03T14:15:27.099Z,8.22
2023-04-03T14:17:55.386Z,9.52
2023-04-03T14:20:25.556Z,11.33
2023-04-03T14:22:54.620Z,10.25
2023-04-03T14:25:24.550Z,8.72
2023-04-03T14:27:54.680Z,8.45
2023-04-03T14:30:27.622Z,9.19
2023-04-03T14:32:55.649Z,9.69
2023-04-03T14:35:23.637Z,9.56
2023-04-03T14:37:52.616Z,10.23
2023-04-03T14:40:24.610Z,9.07
2023-04-03T14:42:52.545Z,7.13
2023-04-03T14:45:20.320Z,6.72
2023-04-03T14:47:51.516Z,6.62
2023-04-03T14:50:21.943Z,6.54
2023-04-03T14:52:51.041Z,8.29
2023-04-03T14:55:21.158Z,9.88
2023-04-03T14:57:48.848Z,8.75
2023-04-03T15:00:19.072Z,8.16
2023-04-03T15:02:47.309Z,6.73
2023-04-03T15:05:17.637Z,6.43
2023-04-03T15:07:48.813Z,6.26
2023-04-03T15:10:19.262Z,5.68
2023-04-03T15:12:47.770Z,5.84
2023-04-03T15:15:20.638Z,6.35
2023-04-03T15:17:54.627Z,8.18
2023-04-03T15:20:25.829Z,9.50
2023-04-03T15:22:53.587Z,9.15
2023-04-03T15:25:21.081Z,9.07
2023-04-03T15:27:48.875Z,8.53
2023-04-03T15:30:19.273Z,7.95
2023-04-03T15:32:47.450Z,6.86
2023-04-03T15:35:15.125Z,6.10
2023-04-03T15:37:44.050Z,5.94
2023-04-03T15:40:12.526Z,6.01
2023-04-03T15:42:41.011Z,6.06
2023-04-03T15:45:09.968Z,6.77
2023-04-03T15:47:37.784Z,7.34
2023-04-03T15:50:06.949Z,7.45
2023-04-03T15:52:34.597Z,7.86
2023-04-03T15:55:03.536Z,7.53
2023-04-03T16:00:03.545Z,7.46
2023-04-03T16:02:31.195Z,7.16
2023-04-03T16:04:58.777Z,6.00
2023-04-03T16:07:26.339Z,5.84
2023-04-03T16:09:54.057Z,5.71
2023-04-03T16:12:22.876Z,5.90
2023-04-03T16:14:50.326Z,5.67
2023-04-03T16:17:17.839Z,5.46
2023-04-03T16:19:45.354Z,5.46
2023-04-03T16:22:12.910Z,5.40
2023-04-03T16:24:40.453Z,5.31
2023-04-03T16:27:08.030Z,5.42
2023-04-03T16:29:37.203Z,5.38
2023-04-03T16:32:05.101Z,5.46
2023-04-03T16:34:33.675Z,5.19
2023-04-03T16:37:01.790Z,4.98
2023-04-03T16:39:29.353Z,4.76
2023-04-03T16:41:56.837Z,4.52
2023-04-03T16:44:24.340Z,4.51
2023-04-03T16:46:53.203Z,4.70
2023-04-03T16:49:20.779Z,4.56
2023-04-03T16:51:50.328Z,4.76
2023-04-03T16:54:17.806Z,4.57
2023-04-03T16:56:45.380Z,4.38
2023-04-03T16:59:12.867Z,4.13
2023-04-03T17:01:40.495Z,3.89
2023-04-03T17:04:09.412Z,3.84
2023-04-03T17:06:36.938Z,3.82
2023-04-03T17:09:04.735Z,3.74
2023-04-03T17:11:32.375Z,3.97
2023-04-03T17:14:00.411Z,3.79
2023-04-03T17:16:28.555Z,3.71
2023-04-03T17:18:56.515Z,3.83
2023-04-03T17:21:25.687Z,3.42
2023-04-03T17:23:58.336Z,3.12
2023-04-03T17:26:26.542Z,3.29
2023-04-03T17:28:54.326Z,3.26
2023-04-03T17:31:21.921Z,3.11
2023-04-03T17:33:49.458Z,3.16
2023-04-03T17:36:16.975Z,3.03
2023-04-03T17:38:47.188Z,3.05
2023-04-03T17:41:14.692Z,2.88
2023-04-03T17:43:42.265Z,2.88
2023-04-03T17:46:11.619Z,2.80
2023-04-03T17:48:41.222Z,2.84
2023-04-03T17:51:10.452Z,3.08
2023-04-03T17:53:38.185Z,2.73
2023-04-03T17:56:10.845Z,2.60
2023-04-03T17:58:38.474Z,2.87
2023-04-03T18:01:10.997Z,2.78
2023-04-03T18:03:38.786Z,2.70
2023-04-03T18:06:08.511Z,2.99
2023-04-03T18:08:39.585Z,3.21
2023-04-03T18:11:07.712Z,3.34
2023-04-03T18:13:37.619Z,2.98
2023-04-03T18:16:06.014Z,2.96
2023-04-03T18:18:33.626Z,2.49
2023-04-03T18:21:01.112Z,2.53
2023-04-03T18:23:32.361Z,2.42
2023-04-03T18:26:01.166Z,2.52
2023-04-03T18:28:30.218Z,2.35
2023-04-03T18:30:59.397Z,2.26
2023-04-03T18:33:26.884Z,2.42
2023-04-03T18:35:54.401Z,2.46
2023-04-03T18:38:21.873Z,2.58
2023-04-03T18:40:50.080Z,2.53
2023-04-03T18:43:17.994Z,2.53
2023-04-03T18:45:47.067Z,2.48
2023-04-03T18:48:15.986Z,2.60
2023-04-03T18:50:43.598Z,2.39
2023-04-03T18:53:11.327Z,2.52
2023-04-03T18:55:39.054Z,2.17
2023-04-03T18:58:06.622Z,2.11
2023-04-03T19:00:34.114Z,1.80
2023-04-03T19:03:01.762Z,1.94
2023-04-03T19:05:31.379Z,1.91
2023-04-03T19:07:59.426Z,1.95
2023-04-03T19:10:27.208Z,1.68
2023-04-03T19:12:54.950Z,1.94
2023-04-03T19:15:24.324Z,2.32
2023-04-03T19:17:51.863Z,2.30
2023-04-03T19:20:20.258Z,2.29
2023-04-03T19:22:49.086Z,1.97
2023-04-03T19:25:16.786Z,1.67
2023-04-03T19:27:44.258Z,1.30
2023-04-03T19:30:13.248Z,1.46
2023-04-03T19:32:40.967Z,1.34
2023-04-03T19:35:09.466Z,1.14
2023-04-03T19:37:36.941Z,1.44
2023-04-03T19:40:07.382Z,1.46
2023-04-03T19:42:36.741Z,1.81
2023-04-03T19:45:04.665Z,1.97
2023-04-03T19:47:32.816Z,2.21
2023-04-03T19:50:00.309Z,1.99
2023-04-03T19:52:27.892Z,1.91
2023-04-03T19:54:55.379Z,1.96
2023-04-03T19:57:24.230Z,1.67
2023-04-03T19:59:51.715Z,1.65
2023-04-03T20:02:21.250Z,1.69
2023-04-03T20:04:48.855Z,1.70
2023-04-03T20:07:16.504Z,1.39
2023-04-03T20:09:44.068Z,1.64
2023-04-03T20:12:12.205Z,1.51
2023-04-03T20:14:41.028Z,1.54
2023-04-03T20:17:08.641Z,1.58
2023-04-03T20:19:36.845Z,1.49
2023-04-03T20:22:04.427Z,1.56
2023-04-03T20:24:32.332Z,1.30
2023-04-03T20:26:59.998Z,1.35
2023-04-03T20:29:27.745Z,1.41
2023-04-03T20:31:56.640Z,1.57
2023-04-03T20:34:24.380Z,1.41
2023-04-03T20:36:53.045Z,1.56
2023-04-03T20:39:23.980Z,1.60
2023-04-03T20:41:51.721Z,1.71
2023-04-03T20:44:19.718Z,1.70
2023-04-03T20:46:52.806Z,1.74
2023-04-03T20:49:22.631Z,1.93
2023-04-03T20:51:51.117Z,1.92
2023-04-03T20:54:19.058Z,1.83
2023-04-03T20:56:49.647Z,2.05
2023-04-03T20:59:18.375Z,2.21
2023-04-03T21:01:46.845Z,2.47
2023-04-03T21:04:19.592Z,2.96
2023-04-03T21:07:24.536Z,2.97
2023-04-03T21:10:29.475Z,2.41
2023-04-03T21:13:34.783Z,1.56
2023-04-03T21:16:02.867Z,1.91
2023-04-03T21:18:51.159Z,1.84
2023-04-03T21:21:20.564Z,1.86
2023-04-03T21:23:49.373Z,1.65
2023-04-03T21:26:18.350Z,1.60
2023-04-03T21:28:46.306Z,1.83
2023-04-03T21:31:15.060Z,2.00
2023-04-03T21:33:43.906Z,1.96
2023-04-03T21:36:11.373Z,2.05
2023-04-03T21:38:38.879Z,2.17
2023-04-03T21:41:06.432Z,2.40
2023-04-03T21:43:33.906Z,2.16
2023-04-03T21:46:01.890Z,1.91
2023-04-03T21:48:30.529Z,1.79
2023-04-03T21:51:06.626Z,1.88
2023-04-03T21:53:34.441Z,1.65
2023-04-03T21:56:02.456Z,1.57
2023-04-03T21:58:31.970Z,1.72
2023-04-03T22:01:08.664Z,1.76
2023-04-03T22:03:36.148Z,1.58
2023-04-03T22:06:05.548Z,1.61
2023-04-03T22:08:33.604Z,1.61
2023-04-03T22:11:02.533Z,1.46
2023-04-03T22:13:30.122Z,1.44
2023-04-03T22:15:57.742Z,1.11
2023-04-03T22:18:25.582Z,1.37
2023-04-03T22:20:53.290Z,1.44
2023-04-03T22:23:22.951Z,1.75
2023-04-03T22:26:01.199Z,1.36
2023-04-03T22:28:28.905Z,1.23
2023-04-03T22:30:57.061Z,1.44
2023-04-03T22:33:24.556Z,1.56
2023-04-03T22:35:52.341Z,1.49
2023-04-03T22:38:19.830Z,1.80
2023-04-03T22:40:49.130Z,2.24
2023-04-03T22:43:16.736Z,1.86
2023-04-03T22:45:50.811Z,1.71
2023-04-03T22:48:18.501Z,1.35
2023-04-03T22:50:46.901Z,1.33
2023-04-03T22:53:14.372Z,1.88
2023-04-03T22:55:42.050Z,2.25
2023-04-03T22:58:10.884Z,1.62
2023-04-03T23:00:38.488Z,1.83
2023-04-03T23:03:06.161Z,1.58
2023-04-03T23:05:33.711Z,1.62
2023-04-03T23:08:01.367Z,1.36
2023-04-03T23:10:28.893Z,1.14
2023-04-03T23:12:56.347Z,1.09
2023-04-03T23:15:25.128Z,1.49
2023-04-03T23:17:52.635Z,1.48
2023-04-03T23:20:20.198Z,1.33
2023-04-03T23:22:47.663Z,1.33
2023-04-03T23:25:15.322Z,1.39
2023-04-03T23:27:42.780Z,1.41
2023-04-03T23:30:11.478Z,1.50
2023-04-03T23:32:40.372Z,1.34
2023-04-03T23:35:08.537Z,1.17
2023-04-03T23:37:36.279Z,1.16
2023-04-03T23:40:03.759Z,1.32
2023-04-03T23:42:31.287Z,1.03
2023-04-03T23:44:58.765Z,1.06
2023-04-03T23:47:26.394Z,1.25
2023-04-03T23:49:55.424Z,1.41
2023-04-03T23:52:22.914Z,1.19
2023-04-03T23:54:50.507Z,1.13
2023-04-03T23:57:17.988Z,1.39
2023-04-03T23:59:45.476Z,1.45
